sensor_id;sensor_type;location;lat;lon;timestamp;pressure;altitude;pressure_sealevel;temperature
22322;BMP180;11328;53.928;18.522;2023-03-08T00:01:15;97768.00;;;0.50
22322;BMP180;11328;53.928;18.522;2023-03-08T00:03:43;97771.00;;;0.50
22322;BMP180;11328;53.928;18.522;2023-03-08T00:06:14;97773.00;;;0.50
22322;BMP180;11328;53.928;18.522;2023-03-08T00:08:41;97765.00;;;0.50
22322;BMP180;11328;53.928;18.522;2023-03-08T00:11:11;97772.00;;;0.50
22322;BMP180;11328;53.928;18.522;2023-03-08T00:13:39;97782.00;;;0.50
22322;BMP180;11328;53.928;18.522;2023-03-08T00:16:10;97765.00;;;0.30
22322;BMP180;11328;53.928;18.522;2023-03-08T00:18:37;97779.00;;;0.50
22322;BMP180;11328;53.928;18.522;2023-03-08T00:21:16;97788.00;;;0.40
22322;BMP180;11328;53.928;18.522;2023-03-08T00:23:45;97786.00;;;0.40
22322;BMP180;11328;53.928;18.522;2023-03-08T00:26:12;97784.00;;;0.40
22322;BMP180;11328;53.928;18.522;2023-03-08T00:28:40;97782.00;;;0.40
22322;BMP180;11328;53.928;18.522;2023-03-08T00:31:11;97783.00;;;0.40
22322;BMP180;11328;53.928;18.522;2023-03-08T00:33:39;97787.00;;;0.40
22322;BMP180;11328;53.928;18.522;2023-03-08T00:36:12;97781.00;;;0.40
22322;BMP180;11328;53.928;18.522;2023-03-08T00:38:39;97781.00;;;0.40
22322;BMP180;11328;53.928;18.522;2023-03-08T00:41:07;97789.00;;;0.30
22322;BMP180;11328;53.928;18.522;2023-03-08T00:43:34;97789.00;;;0.30
22322;BMP180;11328;53.928;18.522;2023-03-08T00:46:01;97781.00;;;0.20
22322;BMP180;11328;53.928;18.522;2023-03-08T00:48:28;97781.00;;;0.20
22322;BMP180;11328;53.928;18.522;2023-03-08T00:50:55;97790.00;;;0.20
22322;BMP180;11328;53.928;18.522;2023-03-08T00:53:22;97787.00;;;0.20
22322;BMP180;11328;53.928;18.522;2023-03-08T00:55:55;97787.00;;;0.20
22322;BMP180;11328;53.928;18.522;2023-03-08T00:58:24;97792.00;;;0.20
22322;BMP180;11328;53.928;18.522;2023-03-08T01:00:52;97787.00;;;0.20
22322;BMP180;11328;53.928;18.522;2023-03-08T01:03:19;97788.00;;;0.20
22322;BMP180;11328;53.928;18.522;2023-03-08T01:05:51;97791.00;;;0.20
22322;BMP180;11328;53.928;18.522;2023-03-08T01:08:20;97796.00;;;0.20
22322;BMP180;11328;53.928;18.522;2023-03-08T01:10:49;97792.00;;;0.20
22322;BMP180;11328;53.928;18.522;2023-03-08T01:13:18;97793.00;;;0.20
22322;BMP180;11328;53.928;18.522;2023-03-08T01:15:45;97807.00;;;0.20
22322;BMP180;11328;53.928;18.522;2023-03-08T01:18:13;97787.00;;;0.20
22322;BMP180;11328;53.928;18.522;2023-03-08T01:20:40;97787.00;;;0.10
22322;BMP180;11328;53.928;18.522;2023-03-08T01:23:07;97804.00;;;0.30
22322;BMP180;11328;53.928;18.522;2023-03-08T01:25:34;97750.00;;;0.30
22322;BMP180;11328;53.928;18.522;2023-03-08T01:28:01;97807.00;;;0.30
22322;BMP180;11328;53.928;18.522;2023-03-08T01:30:28;97799.00;;;0.20
22322;BMP180;11328;53.928;18.522;2023-03-08T01:32:55;97804.00;;;0.20
22322;BMP180;11328;53.928;18.522;2023-03-08T01:35:22;97795.00;;;0.10
22322;BMP180;11328;53.928;18.522;2023-03-08T01:37:51;97792.00;;;0.10
22322;BMP180;11328;53.928;18.522;2023-03-08T01:40:21;97789.00;;;0.10
22322;BMP180;11328;53.928;18.522;2023-03-08T01:42:48;97795.00;;;0.10
22322;BMP180;11328;53.928;18.522;2023-03-08T01:46:04;97799.00;;;0.10
22322;BMP180;11328;53.928;18.522;2023-03-08T01:48:46;97799.00;;;0.00
22322;BMP180;11328;53.928;18.522;2023-03-08T01:51:21;97803.00;;;0.10
22322;BMP180;11328;53.928;18.522;2023-03-08T01:53:50;97806.00;;;0.10
22322;BMP180;11328;53.928;18.522;2023-03-08T01:56:19;97807.00;;;0.00
22322;BMP180;11328;53.928;18.522;2023-03-08T01:58:49;97800.00;;;0.00
22322;BMP180;11328;53.928;18.522;2023-03-08T02:01:18;97796.00;;;0.00
22322;BMP180;11328;53.928;18.522;2023-03-08T02:03:46;97793.00;;;0.00
22322;BMP180;11328;53.928;18.522;2023-03-08T02:06:15;97808.00;;;0.00
22322;BMP180;11328;53.928;18.522;2023-03-08T02:08:43;97793.00;;;0.00
22322;BMP180;11328;53.928;18.522;2023-03-08T02:11:11;97799.00;;;-0.10
22322;BMP180;11328;53.928;18.522;2023-03-08T02:13:40;97798.00;;;-0.10
22322;BMP180;11328;53.928;18.522;2023-03-08T02:16:12;97799.00;;;-0.10
22322;BMP180;11328;53.928;18.522;2023-03-08T02:19:01;97794.00;;;-0.10
22322;BMP180;11328;53.928;18.522;2023-03-08T02:21:30;97788.00;;;-0.10
22322;BMP180;11328;53.928;18.522;2023-03-08T02:24:21;97806.00;;;-0.10
22322;BMP180;11328;53.928;18.522;2023-03-08T02:26:52;97794.00;;;-0.10
22322;BMP180;11328;53.928;18.522;2023-03-08T02:29:21;97791.00;;;-0.10
22322;BMP180;11328;53.928;18.522;2023-03-08T02:31:48;97808.00;;;-0.20
22322;BMP180;11328;53.928;18.522;2023-03-08T02:34:15;97816.00;;;-0.30
22322;BMP180;11328;53.928;18.522;2023-03-08T02:36:41;97808.00;;;-0.30
22322;BMP180;11328;53.928;18.522;2023-03-08T02:39:08;97779.00;;;-0.30
22322;BMP180;11328;53.928;18.522;2023-03-08T02:41:35;97808.00;;;-0.30
22322;BMP180;11328;53.928;18.522;2023-03-08T02:44:02;97793.00;;;-0.40
22322;BMP180;11328;53.928;18.522;2023-03-08T02:46:29;97815.00;;;-0.40
22322;BMP180;11328;53.928;18.522;2023-03-08T02:48:56;97791.00;;;-0.40
22322;BMP180;11328;53.928;18.522;2023-03-08T02:51:23;97790.00;;;-0.40
22322;BMP180;11328;53.928;18.522;2023-03-08T02:53:50;97806.00;;;-0.40
22322;BMP180;11328;53.928;18.522;2023-03-08T02:56:17;97799.00;;;-0.40
22322;BMP180;11328;53.928;18.522;2023-03-08T02:58:44;97813.00;;;-0.40
22322;BMP180;11328;53.928;18.522;2023-03-08T03:01:12;97801.00;;;-0.40
22322;BMP180;11328;53.928;18.522;2023-03-08T03:03:40;97805.00;;;-0.40
22322;BMP180;11328;53.928;18.522;2023-03-08T03:06:19;97775.00;;;-0.50
22322;BMP180;11328;53.928;18.522;2023-03-08T03:08:47;97809.00;;;-0.50
22322;BMP180;11328;53.928;18.522;2023-03-08T03:11:20;97807.00;;;-0.40
22322;BMP180;11328;53.928;18.522;2023-03-08T03:13:55;97808.00;;;-0.50
22322;BMP180;11328;53.928;18.522;2023-03-08T03:16:23;97823.00;;;-0.40
22322;BMP180;11328;53.928;18.522;2023-03-08T03:18:55;97765.00;;;-0.50
22322;BMP180;11328;53.928;18.522;2023-03-08T03:21:23;97797.00;;;-0.50
22322;BMP180;11328;53.928;18.522;2023-03-08T03:23:50;97819.00;;;-0.50
22322;BMP180;11328;53.928;18.522;2023-03-08T03:26:21;97818.00;;;-0.50
22322;BMP180;11328;53.928;18.522;2023-03-08T03:28:49;97831.00;;;-0.50
22322;BMP180;11328;53.928;18.522;2023-03-08T03:31:21;97817.00;;;-0.60
22322;BMP180;11328;53.928;18.522;2023-03-08T03:33:49;97837.00;;;-0.50
22322;BMP180;11328;53.928;18.522;2023-03-08T03:36:20;97829.00;;;-0.50
22322;BMP180;11328;53.928;18.522;2023-03-08T03:38:48;97826.00;;;-0.90
22322;BMP180;11328;53.928;18.522;2023-03-08T03:41:18;97831.00;;;-0.50
22322;BMP180;11328;53.928;18.522;2023-03-08T03:43:46;97828.00;;;-0.60
22322;BMP180;11328;53.928;18.522;2023-03-08T03:46:16;97849.00;;;-0.50
22322;BMP180;11328;53.928;18.522;2023-03-08T03:48:44;97801.00;;;-0.50
22322;BMP180;11328;53.928;18.522;2023-03-08T03:51:19;97843.00;;;-0.50
22322;BMP180;11328;53.928;18.522;2023-03-08T03:53:47;97840.00;;;-0.60
22322;BMP180;11328;53.928;18.522;2023-03-08T03:56:24;97851.00;;;-0.60
22322;BMP180;11328;53.928;18.522;2023-03-08T03:58:52;97846.00;;;-0.60
22322;BMP180;11328;53.928;18.522;2023-03-08T04:01:27;97867.00;;;-0.60
22322;BMP180;11328;53.928;18.522;2023-03-08T04:03:55;97857.00;;;-0.70
22322;BMP180;11328;53.928;18.522;2023-03-08T04:06:28;97860.00;;;-0.60
22322;BMP180;11328;53.928;18.522;2023-03-08T04:09:05;97870.00;;;-0.70
22322;BMP180;11328;53.928;18.522;2023-03-08T04:11:37;97861.00;;;-0.70
22322;BMP180;11328;53.928;18.522;2023-03-08T04:14:05;97859.00;;;-0.80
22322;BMP180;11328;53.928;18.522;2023-03-08T04:16:35;97864.00;;;-0.80
22322;BMP180;11328;53.928;18.522;2023-03-08T04:19:12;97885.00;;;-0.90
22322;BMP180;11328;53.928;18.522;2023-03-08T04:21:39;97882.00;;;-0.70
22322;BMP180;11328;53.928;18.522;2023-03-08T04:24:06;97889.00;;;-0.70
22322;BMP180;11328;53.928;18.522;2023-03-08T04:26:34;97878.00;;;-0.70
22322;BMP180;11328;53.928;18.522;2023-03-08T04:29:04;97876.00;;;-0.70
22322;BMP180;11328;53.928;18.522;2023-03-08T04:31:33;97887.00;;;-0.70
22322;BMP180;11328;53.928;18.522;2023-03-08T04:34:02;97881.00;;;-0.70
22322;BMP180;11328;53.928;18.522;2023-03-08T04:36:29;97885.00;;;-0.80
22322;BMP180;11328;53.928;18.522;2023-03-08T04:38:57;97889.00;;;-0.80
22322;BMP180;11328;53.928;18.522;2023-03-08T04:41:25;97844.00;;;-0.80
22322;BMP180;11328;53.928;18.522;2023-03-08T04:43:55;97887.00;;;-0.80
22322;BMP180;11328;53.928;18.522;2023-03-08T04:46:26;97887.00;;;-0.70
22322;BMP180;11328;53.928;18.522;2023-03-08T04:48:54;97885.00;;;-0.80
22322;BMP180;11328;53.928;18.522;2023-03-08T04:51:25;97880.00;;;-0.80
22322;BMP180;11328;53.928;18.522;2023-03-08T04:53:52;97882.00;;;-0.80
22322;BMP180;11328;53.928;18.522;2023-03-08T04:56:19;97889.00;;;-0.80
22322;BMP180;11328;53.928;18.522;2023-03-08T04:58:46;97856.00;;;-0.80
22322;BMP180;11328;53.928;18.522;2023-03-08T05:01:19;97891.00;;;-0.80
22322;BMP180;11328;53.928;18.522;2023-03-08T05:03:48;97891.00;;;-0.80
22322;BMP180;11328;53.928;18.522;2023-03-08T05:06:16;97894.00;;;-0.90
22322;BMP180;11328;53.928;18.522;2023-03-08T05:08:44;97901.00;;;-0.90
22322;BMP180;11328;53.928;18.522;2023-03-08T05:11:25;97900.00;;;-0.90
22322;BMP180;11328;53.928;18.522;2023-03-08T05:13:54;97900.00;;;-0.90
22322;BMP180;11328;53.928;18.522;2023-03-08T05:16:21;97904.00;;;-0.90
22322;BMP180;11328;53.928;18.522;2023-03-08T05:18:48;97899.00;;;-0.90
22322;BMP180;11328;53.928;18.522;2023-03-08T05:21:19;97880.00;;;-0.90
22322;BMP180;11328;53.928;18.522;2023-03-08T05:23:46;97865.00;;;-0.90
22322;BMP180;11328;53.928;18.522;2023-03-08T05:26:16;97900.00;;;-0.90
22322;BMP180;11328;53.928;18.522;2023-03-08T05:28:44;97907.00;;;-0.90
22322;BMP180;11328;53.928;18.522;2023-03-08T05:31:14;97902.00;;;-0.90
22322;BMP180;11328;53.928;18.522;2023-03-08T05:33:44;97932.00;;;-0.80
22322;BMP180;11328;53.928;18.522;2023-03-08T05:36:13;97932.00;;;-0.80
22322;BMP180;11328;53.928;18.522;2023-03-08T05:38:41;97919.00;;;-0.90
22322;BMP180;11328;53.928;18.522;2023-03-08T05:41:15;97934.00;;;-0.90
22322;BMP180;11328;53.928;18.522;2023-03-08T05:43:42;97939.00;;;-0.90
22322;BMP180;11328;53.928;18.522;2023-03-08T05:46:14;97945.00;;;-0.90
22322;BMP180;11328;53.928;18.522;2023-03-08T05:48:42;97942.00;;;-0.90
22322;BMP180;11328;53.928;18.522;2023-03-08T05:51:16;97948.00;;;-0.90
22322;BMP180;11328;53.928;18.522;2023-03-08T05:53:44;97943.00;;;-1.00
22322;BMP180;11328;53.928;18.522;2023-03-08T05:56:21;97944.00;;;-0.70
22322;BMP180;11328;53.928;18.522;2023-03-08T05:58:49;97924.00;;;-0.70
22322;BMP180;11328;53.928;18.522;2023-03-08T06:01:22;97964.00;;;-0.70
22322;BMP180;11328;53.928;18.522;2023-03-08T06:03:53;97956.00;;;-0.70
22322;BMP180;11328;53.928;18.522;2023-03-08T06:06:22;97977.00;;;-0.60
22322;BMP180;11328;53.928;18.522;2023-03-08T06:08:50;97973.00;;;-0.50
22322;BMP180;11328;53.928;18.522;2023-03-08T06:11:17;97982.00;;;-0.30
22322;BMP180;11328;53.928;18.522;2023-03-08T06:13:44;97998.00;;;-0.20
22322;BMP180;11328;53.928;18.522;2023-03-08T06:16:11;97937.00;;;-0.20
22322;BMP180;11328;53.928;18.522;2023-03-08T06:18:41;98003.00;;;-0.20
22322;BMP180;11328;53.928;18.522;2023-03-08T06:21:19;97998.00;;;-0.10
22322;BMP180;11328;53.928;18.522;2023-03-08T06:23:49;98011.00;;;-0.10
22322;BMP180;11328;53.928;18.522;2023-03-08T06:26:16;97998.00;;;-0.10
22322;BMP180;11328;53.928;18.522;2023-03-08T06:28:46;98012.00;;;0.00
22322;BMP180;11328;53.928;18.522;2023-03-08T06:31:18;97997.00;;;0.10
22322;BMP180;11328;53.928;18.522;2023-03-08T06:33:45;98044.00;;;0.20
22322;BMP180;11328;53.928;18.522;2023-03-08T06:36:17;98018.00;;;0.20
22322;BMP180;11328;53.928;18.522;2023-03-08T06:38:47;98040.00;;;0.30
22322;BMP180;11328;53.928;18.522;2023-03-08T06:41:17;98035.00;;;0.30
22322;BMP180;11328;53.928;18.522;2023-03-08T06:43:44;98038.00;;;0.30
22322;BMP180;11328;53.928;18.522;2023-03-08T06:46:14;98059.00;;;0.60
22322;BMP180;11328;53.928;18.522;2023-03-08T06:48:48;98058.00;;;0.70
22322;BMP180;11328;53.928;18.522;2023-03-08T06:51:16;98064.00;;;0.70
22322;BMP180;11328;53.928;18.522;2023-03-08T06:53:45;98066.00;;;0.70
22322;BMP180;11328;53.928;18.522;2023-03-08T06:56:15;98068.00;;;0.80
22322;BMP180;11328;53.928;18.522;2023-03-08T06:58:43;98062.00;;;0.80
22322;BMP180;11328;53.928;18.522;2023-03-08T07:01:11;98069.00;;;1.00
22322;BMP180;11328;53.928;18.522;2023-03-08T07:03:39;98076.00;;;1.00
22322;BMP180;11328;53.928;18.522;2023-03-08T07:06:08;98080.00;;;1.00
22322;BMP180;11328;53.928;18.522;2023-03-08T07:08:37;98069.00;;;1.00
22322;BMP180;11328;53.928;18.522;2023-03-08T07:11:06;98088.00;;;0.90
22322;BMP180;11328;53.928;18.522;2023-03-08T07:13:34;98097.00;;;1.00
22322;BMP180;11328;53.928;18.522;2023-03-08T07:16:10;98099.00;;;1.20
22322;BMP180;11328;53.928;18.522;2023-03-08T07:18:38;98090.00;;;1.30
22322;BMP180;11328;53.928;18.522;2023-03-08T07:21:06;98101.00;;;1.50
22322;BMP180;11328;53.928;18.522;2023-03-08T07:23:33;98093.00;;;1.60
22322;BMP180;11328;53.928;18.522;2023-03-08T07:26:07;98111.00;;;1.60
22322;BMP180;11328;53.928;18.522;2023-03-08T07:28:34;98123.00;;;1.70
22322;BMP180;11328;53.928;18.522;2023-03-08T07:31:01;98080.00;;;1.70
22322;BMP180;11328;53.928;18.522;2023-03-08T07:33:28;98127.00;;;1.70
22322;BMP180;11328;53.928;18.522;2023-03-08T07:36:00;98122.00;;;1.60
22322;BMP180;11328;53.928;18.522;2023-03-08T07:38:30;98121.00;;;1.60
22322;BMP180;11328;53.928;18.522;2023-03-08T07:40:57;98121.00;;;1.80
22322;BMP180;11328;53.928;18.522;2023-03-08T07:43:24;98126.00;;;1.80
22322;BMP180;11328;53.928;18.522;2023-03-08T07:45:50;98134.00;;;1.80
22322;BMP180;11328;53.928;18.522;2023-03-08T07:48:17;98139.00;;;2.10
22322;BMP180;11328;53.928;18.522;2023-03-08T07:50:44;98135.00;;;2.10
22322;BMP180;11328;53.928;18.522;2023-03-08T07:53:11;98132.00;;;1.90
22322;BMP180;11328;53.928;18.522;2023-03-08T07:55:38;98155.00;;;2.10
22322;BMP180;11328;53.928;18.522;2023-03-08T07:58:05;98158.00;;;2.00
22322;BMP180;11328;53.928;18.522;2023-03-08T08:00:32;98155.00;;;2.20
22322;BMP180;11328;53.928;18.522;2023-03-08T08:02:59;98164.00;;;2.00
22322;BMP180;11328;53.928;18.522;2023-03-08T08:05:29;98172.00;;;1.80
22322;BMP180;11328;53.928;18.522;2023-03-08T08:07:56;98172.00;;;2.00
22322;BMP180;11328;53.928;18.522;2023-03-08T08:10:22;98179.00;;;2.00
22322;BMP180;11328;53.928;18.522;2023-03-08T08:12:49;98175.00;;;1.90
22322;BMP180;11328;53.928;18.522;2023-03-08T08:15:16;98179.00;;;2.00
22322;BMP180;11328;53.928;18.522;2023-03-08T08:17:44;98185.00;;;2.10
22322;BMP180;11328;53.928;18.522;2023-03-08T08:20:11;98188.00;;;2.50
22322;BMP180;11328;53.928;18.522;2023-03-08T08:22:40;98207.00;;;2.60
22322;BMP180;11328;53.928;18.522;2023-03-08T08:25:07;98201.00;;;2.50
22322;BMP180;11328;53.928;18.522;2023-03-08T08:27:35;98202.00;;;2.70
22322;BMP180;11328;53.928;18.522;2023-03-08T08:30:04;98203.00;;;2.60
22322;BMP180;11328;53.928;18.522;2023-03-08T08:32:33;98208.00;;;2.50
22322;BMP180;11328;53.928;18.522;2023-03-08T08:35:01;98190.00;;;2.60
22322;BMP180;11328;53.928;18.522;2023-03-08T08:37:28;98205.00;;;2.70
22322;BMP180;11328;53.928;18.522;2023-03-08T08:39:56;98204.00;;;2.90
22322;BMP180;11328;53.928;18.522;2023-03-08T08:42:23;98202.00;;;2.90
22322;BMP180;11328;53.928;18.522;2023-03-08T08:44:52;98218.00;;;3.10
22322;BMP180;11328;53.928;18.522;2023-03-08T08:47:19;98221.00;;;3.30
22322;BMP180;11328;53.928;18.522;2023-03-08T08:49:45;98221.00;;;3.30
22322;BMP180;11328;53.928;18.522;2023-03-08T08:52:12;98213.00;;;3.20
22322;BMP180;11328;53.928;18.522;2023-03-08T08:54:39;98212.00;;;3.30
22322;BMP180;11328;53.928;18.522;2023-03-08T08:57:06;98235.00;;;3.30
22322;BMP180;11328;53.928;18.522;2023-03-08T08:59:33;98209.00;;;3.30
22322;BMP180;11328;53.928;18.522;2023-03-08T09:02:01;98228.00;;;3.20
22322;BMP180;11328;53.928;18.522;2023-03-08T09:04:28;98237.00;;;3.30
22322;BMP180;11328;53.928;18.522;2023-03-08T09:06:55;98227.00;;;3.40
22322;BMP180;11328;53.928;18.522;2023-03-08T09:09:22;98237.00;;;3.40
22322;BMP180;11328;53.928;18.522;2023-03-08T09:11:49;98239.00;;;3.50
22322;BMP180;11328;53.928;18.522;2023-03-08T09:14:21;98236.00;;;3.90
22322;BMP180;11328;53.928;18.522;2023-03-08T09:16:48;98243.00;;;3.60
22322;BMP180;11328;53.928;18.522;2023-03-08T09:19:15;98240.00;;;3.60
22322;BMP180;11328;53.928;18.522;2023-03-08T09:21:42;98246.00;;;3.50
22322;BMP180;11328;53.928;18.522;2023-03-08T09:24:10;98252.00;;;3.60
22322;BMP180;11328;53.928;18.522;2023-03-08T09:26:37;98260.00;;;3.80
22322;BMP180;11328;53.928;18.522;2023-03-08T09:29:06;98263.00;;;3.10
22322;BMP180;11328;53.928;18.522;2023-03-08T09:31:36;98257.00;;;3.20
22322;BMP180;11328;53.928;18.522;2023-03-08T09:34:04;98281.00;;;3.30
22322;BMP180;11328;53.928;18.522;2023-03-08T09:36:36;98269.00;;;3.20
22322;BMP180;11328;53.928;18.522;2023-03-08T09:39:07;98245.00;;;3.60
22322;BMP180;11328;53.928;18.522;2023-03-08T09:45:00;98262.00;;;3.90
22322;BMP180;11328;53.928;18.522;2023-03-08T09:47:49;98260.00;;;3.90
22322;BMP180;11328;53.928;18.522;2023-03-08T09:50:44;98281.00;;;3.90
22322;BMP180;11328;53.928;18.522;2023-03-08T09:59:23;98286.00;;;4.60
22322;BMP180;11328;53.928;18.522;2023-03-08T10:11:00;98288.00;;;4.30
22322;BMP180;11328;53.928;18.522;2023-03-08T10:13:45;98292.00;;;4.20
22322;BMP180;11328;53.928;18.522;2023-03-08T10:16:24;98302.00;;;4.10
22322;BMP180;11328;53.928;18.522;2023-03-08T10:19:00;98311.00;;;4.00
22322;BMP180;11328;53.928;18.522;2023-03-08T10:21:35;98299.00;;;4.20
22322;BMP180;11328;53.928;18.522;2023-03-08T10:24:26;98302.00;;;4.50
22322;BMP180;11328;53.928;18.522;2023-03-08T10:27:14;98308.00;;;4.60
22322;BMP180;11328;53.928;18.522;2023-03-08T10:29:51;98317.00;;;4.60
22322;BMP180;11328;53.928;18.522;2023-03-08T10:32:20;98292.00;;;4.50
22322;BMP180;11328;53.928;18.522;2023-03-08T10:34:48;98323.00;;;4.60
22322;BMP180;11328;53.928;18.522;2023-03-08T10:37:18;98313.00;;;4.20
22322;BMP180;11328;53.928;18.522;2023-03-08T10:39:53;98328.00;;;4.20
22322;BMP180;11328;53.928;18.522;2023-03-08T10:42:24;98313.00;;;4.30
22322;BMP180;11328;53.928;18.522;2023-03-08T10:45:15;98260.00;;;4.10
22322;BMP180;11328;53.928;18.522;2023-03-08T10:48:04;98323.00;;;4.20
22322;BMP180;11328;53.928;18.522;2023-03-08T10:50:34;98336.00;;;4.30
22322;BMP180;11328;53.928;18.522;2023-03-08T10:53:18;98342.00;;;4.40
22322;BMP180;11328;53.928;18.522;2023-03-08T10:55:49;98339.00;;;4.30
22322;BMP180;11328;53.928;18.522;2023-03-08T10:58:37;98336.00;;;4.40
22322;BMP180;11328;53.928;18.522;2023-03-08T11:01:30;98333.00;;;4.40
22322;BMP180;11328;53.928;18.522;2023-03-08T11:04:04;98332.00;;;4.10
22322;BMP180;11328;53.928;18.522;2023-03-08T11:06:33;98301.00;;;4.20
22322;BMP180;11328;53.928;18.522;2023-03-08T11:09:19;98311.00;;;4.10
22322;BMP180;11328;53.928;18.522;2023-03-08T11:11:46;98339.00;;;3.80
22322;BMP180;11328;53.928;18.522;2023-03-08T11:14:17;98343.00;;;3.80
22322;BMP180;11328;53.928;18.522;2023-03-08T11:19:46;98345.00;;;3.60
22322;BMP180;11328;53.928;18.522;2023-03-08T11:31:24;98327.00;;;3.80
22322;BMP180;11328;53.928;18.522;2023-03-08T11:42:50;98320.00;;;4.60
22322;BMP180;11328;53.928;18.522;2023-03-08T11:45:26;98214.00;;;4.40
22322;BMP180;11328;53.928;18.522;2023-03-08T11:50:50;98329.00;;;4.60
22322;BMP180;11328;53.928;18.522;2023-03-08T11:53:30;98339.00;;;4.80
22322;BMP180;11328;53.928;18.522;2023-03-08T11:56:41;98337.00;;;5.00
22322;BMP180;11328;53.928;18.522;2023-03-08T12:02:18;98329.00;;;5.10
22322;BMP180;11328;53.928;18.522;2023-03-08T12:05:21;98338.00;;;4.80
22322;BMP180;11328;53.928;18.522;2023-03-08T12:07:57;98331.00;;;4.90
22322;BMP180;11328;53.928;18.522;2023-03-08T12:10:35;98349.00;;;4.90
22322;BMP180;11328;53.928;18.522;2023-03-08T12:13:34;98346.00;;;5.10
22322;BMP180;11328;53.928;18.522;2023-03-08T12:16:18;98341.00;;;4.90
22322;BMP180;11328;53.928;18.522;2023-03-08T12:22:17;98354.00;;;4.70
22322;BMP180;11328;53.928;18.522;2023-03-08T12:30:26;98348.00;;;4.70
22322;BMP180;11328;53.928;18.522;2023-03-08T12:32:55;98351.00;;;4.60
22322;BMP180;11328;53.928;18.522;2023-03-08T12:35:34;98363.00;;;4.60
22322;BMP180;11328;53.928;18.522;2023-03-08T12:38:51;98371.00;;;4.70
22322;BMP180;11328;53.928;18.522;2023-03-08T12:40:54;98363.00;;;4.90
22322;BMP180;11328;53.928;18.522;2023-03-08T12:46:09;98362.00;;;4.40
22322;BMP180;11328;53.928;18.522;2023-03-08T12:54:01;98370.00;;;4.10
22322;BMP180;11328;53.928;18.522;2023-03-08T12:56:50;98374.00;;;4.30
22322;BMP180;11328;53.928;18.522;2023-03-08T13:01:58;98365.00;;;4.40
22322;BMP180;11328;53.928;18.522;2023-03-08T13:04:33;98393.00;;;4.40
22322;BMP180;11328;53.928;18.522;2023-03-08T13:09:46;98386.00;;;4.60
22322;BMP180;11328;53.928;18.522;2023-03-08T13:12:52;98390.00;;;4.70
22322;BMP180;11328;53.928;18.522;2023-03-08T13:15:24;98387.00;;;4.60
22322;BMP180;11328;53.928;18.522;2023-03-08T13:18:19;98374.00;;;4.60
22322;BMP180;11328;53.928;18.522;2023-03-08T13:21:30;98380.00;;;4.60
22322;BMP180;11328;53.928;18.522;2023-03-08T13:29:32;98386.00;;;4.70
22322;BMP180;11328;53.928;18.522;2023-03-08T13:32:15;98389.00;;;4.50
22322;BMP180;11328;53.928;18.522;2023-03-08T13:34:43;98395.00;;;4.60
22322;BMP180;11328;53.928;18.522;2023-03-08T13:37:25;98391.00;;;4.70
22322;BMP180;11328;53.928;18.522;2023-03-08T13:39:56;98387.00;;;4.70
22322;BMP180;11328;53.928;18.522;2023-03-08T13:42:26;98378.00;;;4.70
22322;BMP180;11328;53.928;18.522;2023-03-08T13:45:07;98390.00;;;4.80
22322;BMP180;11328;53.928;18.522;2023-03-08T13:47:37;98392.00;;;4.80
22322;BMP180;11328;53.928;18.522;2023-03-08T13:50:05;98387.00;;;4.60
22322;BMP180;11328;53.928;18.522;2023-03-08T13:52:36;98389.00;;;4.70
22322;BMP180;11328;53.928;18.522;2023-03-08T13:55:16;98409.00;;;4.70
22322;BMP180;11328;53.928;18.522;2023-03-08T13:57:49;98383.00;;;4.50
22322;BMP180;11328;53.928;18.522;2023-03-08T14:00:23;98379.00;;;4.40
22322;BMP180;11328;53.928;18.522;2023-03-08T14:02:51;98399.00;;;4.40
22322;BMP180;11328;53.928;18.522;2023-03-08T14:05:30;98401.00;;;4.30
22322;BMP180;11328;53.928;18.522;2023-03-08T14:08:22;98398.00;;;4.30
22322;BMP180;11328;53.928;18.522;2023-03-08T14:10:58;98398.00;;;4.20
22322;BMP180;11328;53.928;18.522;2023-03-08T14:13:32;98406.00;;;4.20
22322;BMP180;11328;53.928;18.522;2023-03-08T14:16:04;98398.00;;;4.10
22322;BMP180;11328;53.928;18.522;2023-03-08T14:18:41;98400.00;;;4.10
22322;BMP180;11328;53.928;18.522;2023-03-08T14:21:18;98402.00;;;4.10
22322;BMP180;11328;53.928;18.522;2023-03-08T14:24:00;98406.00;;;4.10
22322;BMP180;11328;53.928;18.522;2023-03-08T14:26:33;98400.00;;;4.00
22322;BMP180;11328;53.928;18.522;2023-03-08T14:29:20;98407.00;;;4.30
22322;BMP180;11328;53.928;18.522;2023-03-08T14:34:39;98397.00;;;4.10
22322;BMP180;11328;53.928;18.522;2023-03-08T14:39:46;98407.00;;;4.00
22322;BMP180;11328;53.928;18.522;2023-03-08T14:42:39;98397.00;;;4.00
22322;BMP180;11328;53.928;18.522;2023-03-08T14:45:36;98405.00;;;3.90
22322;BMP180;11328;53.928;18.522;2023-03-08T14:48:31;98407.00;;;3.80
22322;BMP180;11328;53.928;18.522;2023-03-08T14:51:20;98407.00;;;3.70
22322;BMP180;11328;53.928;18.522;2023-03-08T14:54:02;98414.00;;;3.70
22322;BMP180;11328;53.928;18.522;2023-03-08T14:56:31;98396.00;;;3.70
22322;BMP180;11328;53.928;18.522;2023-03-08T14:59:03;98414.00;;;3.70
22322;BMP180;11328;53.928;18.522;2023-03-08T15:01:35;98411.00;;;3.80
22322;BMP180;11328;53.928;18.522;2023-03-08T15:04:15;98365.00;;;3.90
22322;BMP180;11328;53.928;18.522;2023-03-08T15:06:44;98415.00;;;4.00
22322;BMP180;11328;53.928;18.522;2023-03-08T15:09:16;98410.00;;;4.00
22322;BMP180;11328;53.928;18.522;2023-03-08T15:11:45;98399.00;;;4.20
22322;BMP180;11328;53.928;18.522;2023-03-08T15:14:13;98417.00;;;4.40
22322;BMP180;11328;53.928;18.522;2023-03-08T15:16:40;98415.00;;;4.30
22322;BMP180;11328;53.928;18.522;2023-03-08T15:19:07;98413.00;;;4.10
22322;BMP180;11328;53.928;18.522;2023-03-08T15:21:36;98413.00;;;4.10
22322;BMP180;11328;53.928;18.522;2023-03-08T15:24:05;98411.00;;;4.10
22322;BMP180;11328;53.928;18.522;2023-03-08T15:26:32;98417.00;;;4.00
22322;BMP180;11328;53.928;18.522;2023-03-08T15:29:00;98420.00;;;4.10
22322;BMP180;11328;53.928;18.522;2023-03-08T15:31:30;98422.00;;;3.90
22322;BMP180;11328;53.928;18.522;2023-03-08T15:33:57;98422.00;;;3.80
22322;BMP180;11328;53.928;18.522;2023-03-08T15:36:24;98418.00;;;3.90
22322;BMP180;11328;53.928;18.522;2023-03-08T15:38:51;98425.00;;;3.80
22322;BMP180;11328;53.928;18.522;2023-03-08T15:41:18;98415.00;;;3.70
22322;BMP180;11328;53.928;18.522;2023-03-08T15:43:45;98420.00;;;3.60
22322;BMP180;11328;53.928;18.522;2023-03-08T15:46:14;98411.00;;;3.60
22322;BMP180;11328;53.928;18.522;2023-03-08T15:48:41;98413.00;;;3.60